Raugust, Washington
Current Conditions -  °F | °C
As of 4:52 PM on Saturday 22 Nov 2014 (Local Time) from KMWH Reporting Station
Clear Clear  
Wind Chill:   Ceiling: Unl
Heat Index:   Visibility: 10mi
Dew Point:   Wind: 10mph
Humidity: 79%   Direction: 260°W
Pressure: 29.83"   Gusts: NA
Location:  47.1758°N, 119.289°W
Report Text: KMWH 230052Z 26009KT 10SM CLR 04/01 A2983 RMK AO2 SLP110 T00440011
Loading
Personal Weather Stations






























Interactive Weather Map New forecast layout! Learn more

10-Day Weather Forecast

Advertisements
Track Severe Weather on mobile